createdAt,value
2023-04-28T00:00:06.857Z,33.91
2023-04-28T00:02:33.974Z,33.89
2023-04-28T00:05:01.485Z,33.66
2023-04-28T00:07:28.400Z,33.65
2023-04-28T00:09:56.496Z,33.83
2023-04-28T00:12:23.541Z,33.79
2023-04-28T00:14:50.625Z,33.57
2023-04-28T00:17:17.603Z,33.67
2023-04-28T00:19:44.694Z,33.71
2023-04-28T00:22:11.781Z,33.61
2023-04-28T00:24:38.893Z,33.62
2023-04-28T00:27:05.689Z,33.75
2023-04-28T00:29:32.880Z,33.48
2023-04-28T00:31:59.886Z,33.61
2023-04-28T00:34:27.438Z,33.68
2023-04-28T00:36:54.552Z,33.63
2023-04-28T00:39:22.930Z,33.60
2023-04-28T00:41:49.871Z,33.62
2023-04-28T00:44:17.397Z,33.50
2023-04-28T00:46:44.991Z,33.43
2023-04-28T00:49:11.850Z,33.49
2023-04-28T00:51:38.681Z,33.43
2023-04-28T00:54:06.377Z,33.51
2023-04-28T00:56:33.516Z,33.45
2023-04-28T00:59:00.438Z,33.24
2023-04-28T01:01:27.364Z,33.28
2023-04-28T01:03:54.564Z,33.22
2023-04-28T01:06:23.325Z,33.18
2023-04-28T01:08:50.864Z,33.29
2023-04-28T01:11:17.739Z,33.17
2023-04-28T01:14:10.662Z,33.15
2023-04-28T01:16:39.383Z,33.24
2023-04-28T01:19:13.902Z,33.11
2023-04-28T01:21:40.950Z,33.07
2023-04-28T01:24:16.412Z,32.94
2023-04-28T01:26:44.693Z,33.00
2023-04-28T01:29:11.968Z,32.92
2023-04-28T01:31:38.945Z,32.88
2023-04-28T01:34:06.086Z,32.94
2023-04-28T01:36:34.252Z,32.90
2023-04-28T01:39:03.499Z,32.89
2023-04-28T01:41:30.780Z,32.81
2023-04-28T01:43:57.661Z,32.79
2023-04-28T01:46:25.754Z,32.73
2023-04-28T01:48:52.990Z,32.59
2023-04-28T01:51:19.780Z,32.68
2023-04-28T01:53:46.714Z,32.76
2023-04-28T01:56:13.469Z,32.82
2023-04-28T01:58:40.813Z,32.72
2023-04-28T02:01:08.119Z,32.49
2023-04-28T02:03:35.490Z,32.51
2023-04-28T02:06:04.334Z,32.56
2023-04-28T02:08:31.828Z,32.50
2023-04-28T02:11:01.098Z,32.50
2023-04-28T02:13:28.636Z,32.63
2023-04-28T02:15:55.907Z,32.71
2023-04-28T02:18:22.843Z,32.67
2023-04-28T02:20:49.904Z,32.54
2023-04-28T02:23:17.799Z,32.57
2023-04-28T02:25:44.613Z,32.51
2023-04-28T02:28:13.690Z,32.47
2023-04-28T02:30:40.845Z,32.32
2023-04-28T02:33:07.809Z,32.31
2023-04-28T02:35:34.653Z,32.33
2023-04-28T02:38:01.531Z,32.19
2023-04-28T02:40:28.564Z,32.26
2023-04-28T02:42:55.390Z,32.12
2023-04-28T02:45:22.115Z,31.98
2023-04-28T02:47:48.984Z,32.01
2023-04-28T02:50:17.151Z,32.11
2023-04-28T02:52:43.841Z,32.08
2023-04-28T02:55:11.101Z,32.21
2023-04-28T02:57:38.008Z,32.43
2023-04-28T03:00:06.159Z,32.34
2023-04-28T03:02:39.526Z,32.20
2023-04-28T03:05:07.062Z,32.27
2023-04-28T03:07:33.951Z,32.40
2023-04-28T03:10:00.714Z,32.37
2023-04-28T03:12:27.579Z,32.40
2023-04-28T03:14:54.589Z,32.28
2023-04-28T03:17:21.447Z,32.45
2023-04-28T03:19:48.699Z,32.46
2023-04-28T03:22:15.744Z,32.51
2023-04-28T03:24:42.915Z,32.50
2023-04-28T03:27:09.832Z,32.48
2023-04-28T03:29:37.335Z,32.41
2023-04-28T03:32:04.813Z,32.58
2023-04-28T03:34:31.562Z,32.44
2023-04-28T03:36:58.749Z,32.33
2023-04-28T03:39:28.459Z,32.35
2023-04-28T03:41:55.611Z,32.35
2023-04-28T03:44:45.323Z,32.37
2023-04-28T03:47:12.955Z,32.34
2023-04-28T03:49:40.430Z,32.27
2023-04-28T03:52:07.456Z,32.06
2023-04-28T03:54:34.815Z,32.05
2023-04-28T03:57:02.269Z,31.63
2023-04-28T03:59:32.015Z,31.39
2023-04-28T04:01:59.245Z,30.98
2023-04-28T04:04:26.458Z,30.52
2023-04-28T04:06:54.264Z,30.06
2023-04-28T04:09:21.212Z,29.58
2023-04-28T04:11:47.823Z,29.19
2023-04-28T04:14:16.168Z,28.73
2023-04-28T04:16:43.174Z,28.23
2023-04-28T04:19:10.221Z,27.96
2023-04-28T04:21:41.197Z,27.57
2023-04-28T04:24:08.110Z,27.18
2023-04-28T04:26:35.380Z,26.80
2023-04-28T04:29:03.436Z,26.16
2023-04-28T04:31:32.669Z,25.55
2023-04-28T04:33:59.840Z,24.88
2023-04-28T04:36:27.765Z,24.18
2023-04-28T04:38:54.850Z,23.72
2023-04-28T04:41:22.572Z,23.14
2023-04-28T04:43:50.845Z,22.62
2023-04-28T04:46:17.936Z,22.42
2023-04-28T04:48:45.055Z,22.01
2023-04-28T04:51:11.789Z,21.60
2023-04-28T04:53:39.053Z,21.45
2023-04-28T04:56:06.082Z,21.07
2023-04-28T04:58:33.450Z,20.72
2023-04-28T05:01:18.858Z,20.43
2023-04-28T05:03:45.930Z,20.29
2023-04-28T05:06:12.931Z,20.20
2023-04-28T05:08:45.187Z,19.46
2023-04-28T05:11:12.047Z,19.19
2023-04-28T05:13:40.424Z,18.90
2023-04-28T05:16:07.010Z,18.15
2023-04-28T05:18:42.308Z,17.64
2023-04-28T05:21:11.167Z,17.14
2023-04-28T05:23:38.048Z,16.73
2023-04-28T05:26:04.995Z,16.47
2023-04-28T05:28:31.857Z,16.33
2023-04-28T05:30:58.990Z,16.19
2023-04-28T05:33:26.480Z,16.00
2023-04-28T05:35:53.491Z,15.89
2023-04-28T05:38:23.215Z,15.74
2023-04-28T05:40:51.187Z,15.43
2023-04-28T05:43:18.019Z,15.17
2023-04-28T05:45:45.400Z,14.62
2023-04-28T05:48:12.308Z,13.97
2023-04-28T05:50:39.317Z,14.35
2023-04-28T05:53:07.249Z,14.42
2023-04-28T05:55:35.821Z,14.47
2023-04-28T05:58:03.498Z,14.94
2023-04-28T06:00:31.186Z,14.55
2023-04-28T06:02:58.873Z,14.53
2023-04-28T06:05:26.245Z,14.27
2023-04-28T06:07:55.679Z,14.08
2023-04-28T06:10:23.026Z,14.60
2023-04-28T06:12:50.395Z,14.91
2023-04-28T06:15:17.309Z,14.61
2023-04-28T06:17:44.358Z,14.73
2023-04-28T06:20:13.381Z,14.72
2023-04-28T06:22:40.950Z,15.04
2023-04-28T06:25:08.606Z,15.01
2023-04-28T06:27:41.559Z,14.82
2023-04-28T06:30:09.476Z,14.84
2023-04-28T06:32:37.000Z,15.03
2023-04-28T06:35:04.491Z,14.35
2023-04-28T06:37:31.878Z,14.57
2023-04-28T06:39:58.783Z,14.72
2023-04-28T06:42:26.952Z,14.49
2023-04-28T06:45:04.659Z,14.26
2023-04-28T06:47:31.441Z,14.27
2023-04-28T06:50:01.468Z,14.53
2023-04-28T06:52:38.498Z,14.44
2023-04-28T06:55:08.890Z,14.61
2023-04-28T06:57:37.414Z,14.37
2023-04-28T07:00:05.399Z,13.70
2023-04-28T07:02:32.841Z,12.62
2023-04-28T07:05:00.004Z,12.66
2023-04-28T07:07:26.729Z,13.17
2023-04-28T07:09:53.657Z,13.64
2023-04-28T07:12:21.275Z,14.34
2023-04-28T07:14:48.406Z,14.63
2023-04-28T07:17:15.455Z,14.72
2023-04-28T07:19:42.190Z,15.00
2023-04-28T07:22:08.987Z,15.09
2023-04-28T07:24:35.963Z,15.37
2023-04-28T07:27:03.272Z,15.57
2023-04-28T07:29:33.559Z,15.28
2023-04-28T07:32:03.014Z,15.73
2023-04-28T07:34:31.242Z,15.91
2023-04-28T07:36:58.212Z,16.30
2023-04-28T07:39:25.032Z,16.43
2023-04-28T07:41:51.983Z,15.98
2023-04-28T07:44:19.038Z,15.56
2023-04-28T07:46:46.008Z,15.58
2023-04-28T07:49:12.732Z,15.69
2023-04-28T07:51:39.658Z,15.36
2023-04-28T07:54:06.682Z,15.39
2023-04-28T07:56:33.609Z,15.64
2023-04-28T07:59:00.648Z,15.59
2023-04-28T08:01:27.548Z,15.14
2023-04-28T08:03:54.775Z,15.36
2023-04-28T08:06:21.864Z,15.37
2023-04-28T08:08:48.802Z,15.88
2023-04-28T08:11:15.946Z,15.94
2023-04-28T08:13:43.001Z,16.23
2023-04-28T08:16:09.657Z,16.55
2023-04-28T08:18:36.819Z,16.67
2023-04-28T08:21:04.477Z,16.61
2023-04-28T08:23:31.499Z,16.79
2023-04-28T08:25:58.448Z,16.72
2023-04-28T08:28:25.700Z,16.84
2023-04-28T08:30:55.030Z,16.95
2023-04-28T08:33:23.308Z,17.38
2023-04-28T08:35:50.764Z,17.21
2023-04-28T08:38:17.722Z,17.11
2023-04-28T08:40:44.864Z,16.91
2023-04-28T08:43:13.235Z,16.52
2023-04-28T08:45:42.361Z,16.79
2023-04-28T08:48:19.869Z,16.93
2023-04-28T08:50:52.111Z,17.10
2023-04-28T08:53:25.238Z,17.41
2023-04-28T08:55:58.696Z,17.50
2023-04-28T08:58:26.743Z,17.81
2023-04-28T09:00:54.106Z,17.78
2023-04-28T09:03:21.438Z,17.71
2023-04-28T09:05:48.702Z,17.77
2023-04-28T09:08:15.448Z,18.10
2023-04-28T09:10:42.439Z,18.52
2023-04-28T09:13:09.238Z,18.01
2023-04-28T09:15:37.715Z,17.98
2023-04-28T09:18:05.734Z,18.10
2023-04-28T09:20:33.456Z,18.13
2023-04-28T09:23:15.796Z,18.33
2023-04-28T09:26:15.104Z,18.35
2023-04-28T09:28:41.893Z,18.18
2023-04-28T09:31:25.359Z,18.41
2023-04-28T09:33:59.487Z,18.68
2023-04-28T09:36:29.029Z,18.91
2023-04-28T09:38:59.736Z,18.21
2023-04-28T09:41:40.993Z,18.09
2023-04-28T09:44:18.488Z,18.33
2023-04-28T09:46:46.112Z,18.33
2023-04-28T09:49:13.206Z,18.41
2023-04-28T09:51:40.357Z,18.34
2023-04-28T09:54:07.142Z,18.04
2023-04-28T09:56:39.755Z,18.10
2023-04-28T09:59:06.625Z,18.36
2023-04-28T10:01:40.352Z,18.26
2023-04-28T10:04:07.918Z,18.41
2023-04-28T10:06:38.130Z,19.01
2023-04-28T10:09:05.230Z,18.88
2023-04-28T10:11:33.446Z,18.17
2023-04-28T10:14:00.482Z,18.30
2023-04-28T10:16:29.956Z,18.62
2023-04-28T10:18:56.755Z,18.45
2023-04-28T10:21:24.220Z,18.77
2023-04-28T10:24:14.669Z,18.70
2023-04-28T10:27:05.324Z,19.07
2023-04-28T10:29:33.290Z,18.79
2023-04-28T10:32:20.638Z,18.84
2023-04-28T10:34:47.845Z,18.68
2023-04-28T10:37:15.069Z,19.13
2023-04-28T10:40:08.983Z,19.60
2023-04-28T10:43:06.706Z,19.31
2023-04-28T10:46:00.322Z,19.01
2023-04-28T10:48:33.189Z,18.77
2023-04-28T10:51:03.442Z,18.55
2023-04-28T10:53:46.465Z,18.57
2023-04-28T10:56:16.241Z,18.85
2023-04-28T10:58:45.522Z,19.23
2023-04-28T11:01:21.640Z,19.05
2023-04-28T11:03:50.902Z,18.92
2023-04-28T11:06:23.635Z,18.90
2023-04-28T11:08:50.662Z,18.78
2023-04-28T11:11:23.337Z,18.93
2023-04-28T11:13:50.187Z,19.38
2023-04-28T11:16:27.112Z,19.36
2023-04-28T11:18:58.374Z,19.15
2023-04-28T11:23:32.449Z,20.30
2023-04-28T11:25:59.215Z,19.16
2023-04-28T11:28:26.268Z,19.10
2023-04-28T11:31:10.901Z,19.05
2023-04-28T11:33:38.831Z,19.22
2023-04-28T11:36:06.942Z,19.23
2023-04-28T11:38:43.810Z,19.01
2023-04-28T11:41:10.612Z,18.85
2023-04-28T11:43:46.948Z,18.73
2023-04-28T11:46:19.038Z,18.23
2023-04-28T11:48:46.041Z,18.38
2023-04-28T11:51:33.128Z,18.80
2023-04-28T11:54:00.979Z,18.29
2023-04-28T11:56:28.522Z,18.98
2023-04-28T11:59:09.020Z,19.06
2023-04-28T12:02:11.826Z,19.22
2023-04-28T12:04:40.118Z,18.99
2023-04-28T12:07:17.408Z,18.63
2023-04-28T12:09:49.034Z,19.05
2023-04-28T12:12:40.118Z,19.10
2023-04-28T12:15:12.664Z,18.94
2023-04-28T12:17:41.290Z,18.65
2023-04-28T12:20:09.930Z,18.59
2023-04-28T12:22:44.507Z,18.58
2023-04-28T12:25:12.500Z,18.63
2023-04-28T12:27:40.810Z,18.60
2023-04-28T12:30:20.238Z,18.44
2023-04-28T12:32:47.500Z,18.38
2023-04-28T12:35:14.918Z,18.46
2023-04-28T12:37:42.449Z,18.65
2023-04-28T12:40:10.182Z,18.50
2023-04-28T12:42:37.026Z,19.01
2023-04-28T12:45:05.400Z,19.02
2023-04-28T12:47:32.208Z,19.19
2023-04-28T12:49:58.986Z,19.35
2023-04-28T12:52:25.859Z,19.47
2023-04-28T12:54:52.778Z,19.25
2023-04-28T12:57:19.766Z,19.22
2023-04-28T12:59:47.710Z,19.74
2023-04-28T13:02:15.052Z,19.77
2023-04-28T13:04:51.585Z,19.41
2023-04-28T13:07:18.702Z,19.65
2023-04-28T13:09:46.781Z,19.70
2023-04-28T13:12:14.474Z,19.24
2023-04-28T13:14:41.943Z,19.05
2023-04-28T13:17:10.096Z,18.91
2023-04-28T13:19:37.567Z,18.74
2023-04-28T13:22:06.289Z,18.90
2023-04-28T13:24:33.101Z,19.08
2023-04-28T13:27:00.024Z,19.10
2023-04-28T13:29:26.976Z,19.01
2023-04-28T13:31:54.400Z,19.58
2023-04-28T13:34:21.436Z,19.58
2023-04-28T13:36:50.773Z,19.70
2023-04-28T13:39:19.677Z,19.63
2023-04-28T13:41:46.576Z,19.79
2023-04-28T13:44:13.480Z,19.74
2023-04-28T13:46:41.047Z,19.31
2023-04-28T13:49:11.411Z,19.28
2023-04-28T13:51:38.787Z,19.29
2023-04-28T13:54:08.380Z,19.53
2023-04-28T13:56:36.037Z,19.57
2023-04-28T13:59:03.082Z,19.88
2023-04-28T14:01:30.377Z,20.11
2023-04-28T14:03:57.436Z,20.25
2023-04-28T14:06:24.641Z,20.20
2023-04-28T14:08:51.904Z,20.47
2023-04-28T14:11:19.322Z,20.44
2023-04-28T14:13:46.296Z,20.77
2023-04-28T14:16:13.499Z,20.87
2023-04-28T14:18:40.909Z,20.56
2023-04-28T14:21:07.917Z,20.52
2023-04-28T14:23:34.999Z,20.47
2023-04-28T14:26:01.962Z,20.21
2023-04-28T14:28:29.129Z,19.56
2023-04-28T14:30:56.173Z,19.56
2023-04-28T14:33:23.680Z,19.56
2023-04-28T14:35:50.527Z,19.55
2023-04-28T14:38:17.444Z,19.75
2023-04-28T14:40:44.349Z,19.36
2023-04-28T14:43:11.517Z,19.52
2023-04-28T14:45:38.462Z,19.83
2023-04-28T14:48:07.390Z,20.09
2023-04-28T14:50:34.610Z,20.52
2023-04-28T14:53:06.347Z,20.63
2023-04-28T14:55:33.218Z,20.67
2023-04-28T14:58:00.451Z,20.74
2023-04-28T15:00:27.402Z,20.95
2023-04-28T15:02:54.537Z,21.19
2023-04-28T15:05:21.496Z,21.00
2023-04-28T15:07:48.567Z,21.05
2023-04-28T15:10:15.723Z,20.79
2023-04-28T15:12:43.867Z,20.81
2023-04-28T15:15:11.478Z,20.53
2023-04-28T15:17:40.116Z,20.85
2023-04-28T15:20:08.036Z,20.96
2023-04-28T15:22:36.279Z,21.09
2023-04-28T15:25:03.725Z,21.24
2023-04-28T15:27:31.700Z,20.97
2023-04-28T15:29:58.774Z,20.98
2023-04-28T15:32:26.231Z,21.06
2023-04-28T15:34:54.217Z,21.12
2023-04-28T15:37:41.101Z,21.00
2023-04-28T15:40:11.935Z,21.23
2023-04-28T15:42:48.215Z,21.10
2023-04-28T15:45:15.951Z,21.18
2023-04-28T15:47:43.009Z,21.30
2023-04-28T15:50:10.464Z,21.46
2023-04-28T15:52:47.495Z,21.42
2023-04-28T15:55:18.246Z,21.53
2023-04-28T15:57:46.102Z,21.55
2023-04-28T16:00:15.069Z,21.61
2023-04-28T16:02:43.385Z,21.72
2023-04-28T16:05:10.789Z,21.87
2023-04-28T16:07:40.107Z,21.73
2023-04-28T16:10:08.757Z,21.64
2023-04-28T16:12:36.388Z,21.69
2023-04-28T16:15:03.596Z,21.98
2023-04-28T16:17:30.590Z,22.14
2023-04-28T16:19:57.478Z,22.23
2023-04-28T16:22:24.845Z,22.34
2023-04-28T16:24:53.393Z,22.31
2023-04-28T16:27:20.475Z,22.42
2023-04-28T16:29:47.328Z,22.63
2023-04-28T16:32:14.744Z,22.60
2023-04-28T16:34:42.170Z,22.80
2023-04-28T16:37:10.412Z,22.80
2023-04-28T16:39:37.380Z,22.75
2023-04-28T16:42:05.015Z,22.94
2023-04-28T16:44:32.033Z,22.99
2023-04-28T16:46:59.631Z,23.02
2023-04-28T16:49:26.600Z,22.97
2023-04-28T16:52:00.829Z,23.05
2023-04-28T16:54:28.380Z,23.02
2023-04-28T16:56:55.701Z,23.19
2023-04-28T16:59:22.982Z,23.28
2023-04-28T17:01:49.949Z,23.19
2023-04-28T17:04:17.504Z,23.28
2023-04-28T17:06:45.137Z,23.26
2023-04-28T17:09:12.339Z,23.37
2023-04-28T17:11:39.337Z,23.37
2023-04-28T17:14:06.698Z,23.26
2023-04-28T17:16:34.251Z,23.26
2023-04-28T17:19:01.380Z,23.36
2023-04-28T17:21:28.606Z,23.33
2023-04-28T17:23:59.085Z,23.29
2023-04-28T17:26:27.082Z,23.36
2023-04-28T17:28:55.243Z,23.33
2023-04-28T17:31:22.653Z,23.44
2023-04-28T17:33:50.971Z,23.47
2023-04-28T17:36:18.841Z,23.49
2023-04-28T17:38:45.911Z,23.59
2023-04-28T17:41:12.933Z,23.64
2023-04-28T17:43:39.988Z,23.69
2023-04-28T17:46:07.270Z,23.67
2023-04-28T17:48:34.522Z,23.59
2023-04-28T17:51:01.440Z,23.68
2023-04-28T17:53:28.280Z,23.59
2023-04-28T17:55:55.247Z,23.74
2023-04-28T17:58:22.790Z,23.70
2023-04-28T18:00:49.955Z,23.66
2023-04-28T18:03:16.841Z,23.66
2023-04-28T18:05:43.780Z,23.82
2023-04-28T18:08:10.678Z,23.91
2023-04-28T18:10:37.518Z,24.06
2023-04-28T18:13:05.908Z,24.15
2023-04-28T18:15:32.679Z,24.12
2023-04-28T18:17:59.851Z,24.13
2023-04-28T18:20:27.614Z,24.16
2023-04-28T18:22:56.156Z,24.17
2023-04-28T18:25:23.391Z,24.18
2023-04-28T18:27:50.552Z,24.13
2023-04-28T18:30:17.602Z,24.01
2023-04-28T18:32:44.549Z,24.16
2023-04-28T18:35:12.108Z,24.08
2023-04-28T18:37:38.919Z,23.94
2023-04-28T18:40:06.257Z,23.95
2023-04-28T18:42:33.666Z,24.05
2023-04-28T18:45:00.997Z,23.98
2023-04-28T18:47:28.259Z,24.00
2023-04-28T18:49:55.729Z,24.02
2023-04-28T18:52:22.781Z,24.01
2023-04-28T18:54:49.827Z,24.04
2023-04-28T18:57:16.521Z,24.16
2023-04-28T18:59:43.623Z,24.14
2023-04-28T19:02:10.848Z,24.07
2023-04-28T19:04:41.549Z,24.07
2023-04-28T19:07:08.658Z,24.13
2023-04-28T19:09:35.722Z,24.09
2023-04-28T19:12:03.091Z,24.10
2023-04-28T19:14:30.529Z,24.12
2023-04-28T19:16:57.307Z,24.16
2023-04-28T19:19:24.322Z,24.16
2023-04-28T19:21:52.195Z,24.20
2023-04-28T19:24:19.137Z,24.21
2023-04-28T19:26:46.099Z,24.17
2023-04-28T19:29:16.611Z,24.21
2023-04-28T19:31:44.070Z,24.23
2023-04-28T19:34:11.117Z,24.25
2023-04-28T19:36:37.859Z,24.31
2023-04-28T19:39:05.218Z,24.27
2023-04-28T19:41:32.466Z,24.16
2023-04-28T19:43:59.510Z,24.27
2023-04-28T19:46:26.444Z,24.23
2023-04-28T19:48:53.625Z,24.22
2023-04-28T19:51:20.790Z,24.25
2023-04-28T19:53:48.333Z,24.22
2023-04-28T19:56:15.113Z,24.36
2023-04-28T19:58:42.122Z,24.27
2023-04-28T20:01:08.908Z,24.33
2023-04-28T20:03:36.319Z,24.23
2023-04-28T20:06:03.780Z,24.47
2023-04-28T20:08:30.719Z,24.58
2023-04-28T20:10:57.775Z,24.63
2023-04-28T20:13:25.652Z,24.59
2023-04-28T20:15:53.664Z,24.75
2023-04-28T20:18:20.682Z,24.80
2023-04-28T20:20:47.434Z,24.90
2023-04-28T20:23:14.277Z,24.78
2023-04-28T20:25:41.334Z,24.80
2023-04-28T20:28:08.358Z,24.97
2023-04-28T20:30:36.222Z,24.88
2023-04-28T20:33:03.449Z,24.75
2023-04-28T20:35:31.544Z,24.68
2023-04-28T20:37:58.798Z,24.62
2023-04-28T20:40:25.739Z,24.61
2023-04-28T20:42:52.952Z,24.74
2023-04-28T20:45:20.672Z,24.78
2023-04-28T20:47:47.565Z,24.82
2023-04-28T20:50:15.205Z,24.73
2023-04-28T20:52:42.231Z,24.72
2023-04-28T20:55:10.054Z,24.99
2023-04-28T20:57:37.078Z,24.86
2023-04-28T21:00:06.338Z,25.03
2023-04-28T21:02:33.423Z,25.02
2023-04-28T21:05:01.352Z,24.97
2023-04-28T21:07:28.840Z,24.84
2023-04-28T21:09:57.678Z,24.97
2023-04-28T21:12:24.783Z,25.04
2023-04-28T21:14:52.029Z,25.18
2023-04-28T21:17:19.044Z,25.29
2023-04-28T21:19:45.978Z,25.45
2023-04-28T21:22:14.181Z,25.46
2023-04-28T21:24:41.127Z,25.58
2023-04-28T21:27:08.698Z,25.81
2023-04-28T21:29:35.745Z,25.95
2023-04-28T21:32:02.870Z,26.12
2023-04-28T21:34:30.159Z,26.15
2023-04-28T21:36:57.908Z,26.31
2023-04-28T21:39:27.167Z,26.36
2023-04-28T21:41:54.373Z,26.48
2023-04-28T21:48:52.065Z,29.83
2023-04-28T21:51:19.015Z,27.29
2023-04-28T21:53:45.961Z,26.98
2023-04-28T21:56:14.587Z,27.03
2023-04-28T21:58:41.553Z,26.84
2023-04-28T22:01:08.249Z,26.84
2023-04-28T22:03:35.724Z,26.97
2023-04-28T22:06:02.981Z,27.00
2023-04-28T22:08:30.983Z,27.09
2023-04-28T22:10:57.628Z,27.13
2023-04-28T22:13:24.717Z,27.15
2023-04-28T22:15:51.596Z,27.17
2023-04-28T22:18:19.006Z,27.12
2023-04-28T22:20:46.369Z,27.16
2023-04-28T22:23:13.615Z,27.30
2023-04-28T22:25:40.642Z,27.49
2023-04-28T22:28:07.541Z,27.35
2023-04-28T22:30:34.566Z,27.34
2023-04-28T22:33:01.435Z,27.47
2023-04-28T22:35:28.114Z,27.26
2023-04-28T22:37:54.893Z,27.23
2023-04-28T22:40:22.038Z,27.28
2023-04-28T22:42:49.303Z,27.30
2023-04-28T22:45:16.470Z,27.50
2023-04-28T22:47:43.365Z,27.46
2023-04-28T22:50:10.852Z,27.57
2023-04-28T22:52:38.519Z,27.72
2023-04-28T22:55:05.977Z,27.82
2023-04-28T22:57:33.767Z,27.77
2023-04-28T23:00:01.493Z,27.69
2023-04-28T23:02:28.960Z,27.82
2023-04-28T23:04:56.525Z,27.83
2023-04-28T23:07:23.883Z,28.03
2023-04-28T23:09:51.074Z,27.93
2023-04-28T23:12:18.289Z,28.14
2023-04-28T23:14:45.083Z,28.08
2023-04-28T23:17:12.179Z,28.06
2023-04-28T23:19:39.126Z,28.03
2023-04-28T23:22:07.219Z,27.94
2023-04-28T23:24:36.204Z,27.62
2023-04-28T23:27:03.168Z,27.59
2023-04-28T23:29:30.024Z,27.51
2023-04-28T23:31:57.353Z,27.61
2023-04-28T23:34:24.697Z,27.60
2023-04-28T23:36:51.540Z,27.60
2023-04-28T23:39:18.429Z,27.75
2023-04-28T23:41:45.356Z,27.88
2023-04-28T23:44:12.371Z,28.04
2023-04-28T23:46:39.505Z,28.11
2023-04-28T23:49:06.578Z,28.22
2023-04-28T23:51:33.467Z,28.32
2023-04-28T23:54:01.507Z,28.52
2023-04-28T23:56:28.564Z,28.54
2023-04-28T23:58:55.703Z,28.41
